Time;durP1;ratioP1;P1;durP2;ratioP2;P2;SDS_P1;SDS_P2;PMS_P1;PMS_P2;Temp;Humidity;BMP_temperature;BMP_pressure;BME280_temperature;BME280_humidity;BME280_pressure;Samples;Min_cycle;Max_cycle;Signal;HPM_P1;HPM_P2
2023/11/10 00:00:25;;;;;;;4.75;1.33;;;;;;;23.53;34.49;99740.09;4197069;28;20124;-64
2023/11/10 00:02:27;;;;;;;;;;;;;;;23.53;34.52;99742.78;4197463;28;20450;-64
2023/11/10 00:04:29;;;;;;;5.00;1.25;;;;;;;23.50;34.50;99747.63;4197114;28;19956;-64
2023/11/10 00:06:31;;;;;;;4.32;1.42;;;;;;;23.52;34.43;99746.47;4196484;28;20585;-63
2023/11/10 00:08:33;;;;;;;4.90;1.20;;;;;;;23.49;34.88;99746.81;4196864;28;20055;-64
2023/11/10 00:10:35;;;;;;;4.18;1.30;;;;;;;23.52;34.81;99745.63;4196722;28;20063;-64
2023/11/10 00:12:37;;;;;;;4.75;1.48;;;;;;;23.52;34.65;99740.28;4195575;28;20482;-64
2023/11/10 00:14:42;;;;;;;4.13;1.30;;;;;;;23.54;34.61;99746.31;4196796;28;20510;-64
2023/11/10 00:16:44;;;;;;;4.38;1.30;;;;;;;23.54;34.56;99744.47;4196759;28;20076;-64
2023/11/10 00:18:46;;;;;;;4.60;1.55;;;;;;;23.56;34.45;99746.97;4196614;28;20044;-64
2023/11/10 00:20:48;;;;;;;4.63;1.40;;;;;;;23.56;34.41;99747.84;4196519;28;20072;-64
2023/11/10 00:22:49;;;;;;;4.53;1.40;;;;;;;23.54;34.33;99749.00;4196695;28;20068;-65
2023/11/10 00:24:52;;;;;;;4.78;1.33;;;;;;;23.52;34.04;99743.78;4196537;28;20076;-65
2023/11/10 00:26:54;;;;;;;3.80;1.35;;;;;;;23.53;34.44;99742.78;4196641;28;20151;-64
2023/11/10 00:28:56;;;;;;;;;;;;;;;23.54;34.32;99752.53;4197061;28;20068;-65
2023/11/10 00:30:58;;;;;;;5.55;1.35;;;;;;;23.51;34.32;99738.59;4196607;28;19924;-65
2023/11/10 00:32:59;;;;;;;;;;;;;;;23.51;34.57;99746.63;4197143;28;20423;-65
2023/11/10 00:35:01;;;;;;;5.63;1.60;;;;;;;23.50;34.48;99747.63;4196541;28;19956;-65
2023/11/10 00:37:04;;;;;;;3.67;1.08;;;;;;;23.51;34.34;99736.72;4196613;28;20444;-65
2023/11/10 00:39:06;;;;;;;4.18;1.30;;;;;;;23.55;34.49;99742.63;4196629;28;20191;-66
2023/11/10 00:41:07;;;;;;;;;;;;;;;23.55;34.22;99742.63;4196995;28;20055;-66
2023/11/10 00:43:09;;;;;;;5.75;1.52;;;;;;;23.54;34.68;99738.28;4195781;28;19928;-65
2023/11/10 00:45:10;;;;;;;5.03;1.30;;;;;;;23.55;33.94;99735.41;4196642;28;20070;-65
2023/11/10 00:47:12;;;;;;;4.63;1.40;;;;;;;23.57;34.33;99735.25;4195088;28;20052;-65
2023/11/10 00:49:15;;;;;;;;;;;;;;;23.58;34.21;99739.63;4196205;28;20052;-65
2023/11/10 00:51:16;;;;;;;4.93;1.50;;;;;;;23.56;34.33;99733.56;4196351;28;19973;-65
2023/11/10 00:53:20;;;;;;;4.85;1.48;;;;;;;23.56;34.66;99731.75;4196530;28;20565;-65
2023/11/10 00:55:22;;;;;;;4.20;1.25;;;;;;;23.53;34.80;99732.06;4196492;28;20044;-65
2023/11/10 00:57:23;;;;;;;5.00;1.40;;;;;;;23.54;34.36;99730.22;4196196;28;20072;-65
2023/11/10 00:59:25;;;;;;;4.18;1.20;;;;;;;23.55;34.43;99731.88;4196537;28;20454;-65
2023/11/10 01:01:27;;;;;;;;;;;;;;;23.55;34.43;99726.50;4196926;28;20124;-65
2023/11/10 01:03:29;;;;;;;4.45;1.20;;;;;;;23.49;34.62;99711.94;4195898;28;19920;-64
2023/11/10 01:05:31;;;;;;;3.63;1.20;;;;;;;23.56;34.61;99726.38;4196408;28;20530;-64
2023/11/10 01:07:32;;;;;;;;;;;;;;;23.57;34.06;99721.84;4196721;28;20052;-64
2023/11/10 01:09:35;;;;;;;4.45;1.25;;;;;;;23.56;34.12;99720.16;4196257;28;20298;-64
2023/11/10 01:11:36;;;;;;;3.78;1.02;;;;;;;23.57;34.47;99714.63;4196417;28;20128;-65
2023/11/10 01:13:38;;;;;;;;;;;;;;;23.56;34.15;99712.94;4196719;28;20049;-64
2023/11/10 01:15:40;;;;;;;4.15;1.50;;;;;;;23.54;34.26;99709.59;4196282;28;20413;-64
2023/11/10 01:17:43;;;;;;;4.22;1.25;;;;;;;23.55;34.38;99718.47;4195900;28;20063;-64
2023/11/10 01:19:44;;;;;;;4.03;1.08;;;;;;;23.55;34.32;99718.47;4195942;28;20072;-64
2023/11/10 01:21:46;;;;;;;;;;;;;;;23.55;34.27;99719.31;4196665;28;20301;-65
2023/11/10 01:23:50;;;;;;;4.47;1.10;;;;;;;23.55;34.15;99724.69;4195936;28;19930;-65
2023/11/10 01:25:52;;;;;;;4.50;1.20;;;;;;;23.58;34.37;99726.19;4196182;28;20093;-65
2023/11/10 01:27:53;;;;;;;4.07;1.35;;;;;;;23.59;34.37;99728.72;4196172;28;20361;-64
2023/11/10 01:29:55;;;;;;;3.40;1.00;;;;;;;23.60;34.42;99726.88;4196061;28;20119;-64
2023/11/10 01:31:56;;;;;;;3.58;1.00;;;;;;;23.60;33.82;99724.19;4195732;28;20075;-64
2023/11/10 01:33:58;;;;;;;4.88;1.33;;;;;;;23.59;33.95;99731.41;4196174;28;20047;-64
2023/11/10 01:36:01;;;;;;;3.75;1.20;;;;;;;23.59;34.25;99728.72;4196015;28;20127;-64
2023/11/10 01:38:02;;;;;;;5.32;1.25;;;;;;;23.58;33.86;99728.88;4196133;28;20044;-65
2023/11/10 01:40:05;;;;;;;4.07;1.20;;;;;;;23.54;34.15;99723.00;4196079;28;20053;-65
2023/11/10 01:42:08;;;;;;;4.10;1.27;;;;;;;23.56;34.23;99734.44;4194730;28;20502;-65
2023/11/10 01:44:10;;;;;;;4.70;1.20;;;;;;;23.57;34.27;99732.56;4196039;28;20049;-67
2023/11/10 01:46:46;;;;;;;4.03;1.10;;;;;;;23.51;33.79;99714.44;4194704;28;20091;-66
2023/11/10 01:48:49;;;;;;;4.30;1.45;;;;;;;23.56;34.29;99729.06;4195604;28;20479;-66
2023/11/10 01:50:51;;;;;;;3.78;0.90;;;;;;;23.58;34.29;99735.06;4195628;28;20049;-66
2023/11/10 01:52:52;;;;;;;3.20;1.00;;;;;;;23.60;34.19;99729.56;4196076;28;20075;-66
2023/11/10 01:54:54;;;;;;;3.40;1.10;;;;;;;23.60;33.76;99741.13;4197416;28;20120;-65
2023/11/10 01:56:56;;;;;;;3.55;0.95;;;;;;;23.60;34.08;99734.94;4198907;28;20044;-67
2023/11/10 01:59:00;;;;;;;3.38;1.20;;;;;;;23.60;33.75;99740.31;4199028;28;20058;-66
2023/11/10 02:01:04;;;;;;;4.20;1.33;;;;;;;23.60;34.03;99734.94;4198824;28;20049;-66
2023/11/10 02:03:07;;;;;;;3.47;0.90;;;;;;;23.56;34.25;99745.16;4199113;28;20456;-66
2023/11/10 02:05:10;;;;;;;4.30;1.55;;;;;;;23.58;34.02;99736.94;4198788;28;20056;-65
2023/11/10 02:07:12;;;;;;;4.07;1.00;;;;;;;23.57;34.13;99744.16;4197719;28;20134;-65
2023/11/10 02:09:13;;;;;;;;;;;;;;;23.58;33.93;99745.81;4199402;28;20458;-65
2023/11/10 02:11:15;;;;;;;4.22;1.10;;;;;;;23.57;34.13;99743.31;4198871;28;19946;-66
2023/11/10 02:13:21;;;;;;;4.15;1.10;;;;;;;23.60;33.91;99746.50;4197603;28;20074;-66
2023/11/10 02:15:24;;;;;;;4.53;1.10;;;;;;;23.60;33.92;99737.63;4198629;28;20424;-66
2023/11/10 02:17:26;;;;;;;3.88;1.10;;;;;;;23.59;34.19;99738.63;4198615;28;20052;-65
2023/11/10 02:19:28;;;;;;;;;;;;;;;23.61;33.74;99729.41;4199195;28;20045;-66
2023/11/10 02:21:30;;;;;;;4.50;1.10;;;;;;;23.60;33.74;99732.25;4198856;28;19921;-67
2023/11/10 02:23:34;;;;;;;3.55;0.80;;;;;;;23.61;33.75;99731.25;4198693;28;20106;-66
2023/11/10 02:25:36;;;;;;;4.55;1.00;;;;;;;23.60;33.91;99727.72;4198948;28;20075;-65
2023/11/10 02:27:38;;;;;;;3.72;0.98;;;;;;;23.59;33.51;99730.56;4198788;28;20526;-66
2023/11/10 02:29:40;;;;;;;4.28;1.02;;;;;;;23.60;33.67;99729.56;4197575;28;20132;-66
2023/11/10 02:31:42;;;;;;;3.92;1.27;;;;;;;23.51;33.79;99712.56;4198219;28;20132;-65
2023/11/10 02:33:44;;;;;;;3.35;0.90;;;;;;;23.49;34.09;99705.69;4198728;28;20099;-65
2023/11/10 02:35:45;;;;;;;;;;;;;;;23.61;34.06;99728.56;4199056;28;20045;-66
2023/11/10 02:37:47;;;;;;;3.63;1.30;;;;;;;23.58;33.92;99726.19;4198438;28;19924;-66
2023/11/10 02:39:48;;;;;;;4.50;1.13;;;;;;;23.60;33.79;99721.50;4198531;28;20041;-66
2023/11/10 02:41:53;;;;;;;4.55;1.10;;;;;;;23.60;33.87;99718.84;4198457;28;20470;-66
2023/11/10 02:43:55;;;;;;;3.45;1.00;;;;;;;23.60;33.67;99714.28;4198448;28;20162;-66
2023/11/10 02:45:56;;;;;;;5.68;0.95;;;;;;;23.62;33.78;99716.81;4197962;28;20040;-67
2023/11/10 02:47:58;;;;;;;3.55;1.13;;;;;;;23.60;33.99;99708.91;4198363;28;20044;-66
2023/11/10 02:49:59;;;;;;;;;;;;;;;23.58;33.81;99705.56;4198495;28;20044;-66
2023/11/10 02:52:01;;;;;;;4.18;1.10;;;;;;;23.53;33.98;99699.03;4198241;28;19920;-67
2023/11/10 02:54:03;;;;;;;;;;;;;;;23.56;33.72;99706.72;4198579;28;20068;-66
2023/11/10 02:56:06;;;;;;;4.70;1.23;;;;;;;23.54;33.77;99703.38;4198132;28;19928;-66
2023/11/10 02:58:08;;;;;;;3.95;1.10;;;;;;;23.45;34.05;99689.94;4197878;28;20139;-66
2023/11/10 03:00:10;;;;;;;3.75;0.90;;;;;;;23.57;34.08;99703.91;4197918;28;20048;-66
2023/11/10 03:02:14;;;;;;;4.10;1.08;;;;;;;23.58;34.24;99705.56;4197999;28;20423;-66
2023/11/10 03:04:15;;;;;;;4.88;1.25;;;;;;;23.61;33.92;99709.78;4198018;28;20048;-66
2023/11/10 03:06:17;;;;;;;;;;;;;;;23.63;33.92;99714.97;4198028;28;20553;-66
2023/11/10 03:08:19;;;;;;;4.15;1.00;;;;;;;23.58;33.61;99715.47;4197975;28;19921;-66
2023/11/10 03:10:20;;;;;;;3.58;1.05;;;;;;;23.60;33.75;99718.84;4197877;28;20109;-66
2023/11/10 03:12:23;;;;;;;3.70;1.05;;;;;;;23.58;33.27;99718.16;4197859;28;20076;-66
2023/11/10 03:14:25;;;;;;;3.40;1.08;;;;;;;23.57;33.87;99721.84;4197535;28;20096;-66
2023/11/10 03:16:27;;;;;;;;;;;;;;;23.57;33.84;99733.44;4197256;28;20078;-66
2023/11/10 03:18:29;;;;;;;;;;;;;;;23.55;33.75;99735.41;4198310;28;19924;-66
2023/11/10 03:20:30;;;;;;;3.97;1.10;;;;;;;23.56;33.42;99734.44;4197630;28;19920;-65
2023/11/10 03:22:32;;;;;;;4.43;1.00;;;;;;;23.58;33.63;99734.25;4197557;28;20076;-66
2023/11/10 03:24:36;;;;;;;3.55;0.98;;;;;;;23.56;33.57;99728.19;4197616;28;20057;-66
2023/11/10 03:26:38;;;;;;;4.07;0.90;;;;;;;23.62;33.69;99732.91;4197611;28;20045;-66
2023/11/10 03:28:40;;;;;;;4.15;0.95;;;;;;;23.61;33.55;99733.94;4197501;28;20074;-67
2023/11/10 03:30:42;;;;;;;4.47;1.02;;;;;;;23.62;33.55;99735.59;4196436;28;20049;-66
2023/11/10 03:32:44;;;;;;;3.95;1.02;;;;;;;23.59;33.82;99728.72;4197420;28;20050;-66
2023/11/10 03:34:45;;;;;;;;;;;;;;;23.60;33.50;99734.94;4197791;28;20047;-66
2023/11/10 03:36:47;;;;;;;4.03;1.10;;;;;;;23.55;33.76;99721.16;4197364;28;19927;-66
2023/11/10 03:38:48;;;;;;;;;;;;;;;23.57;33.77;99716.47;4197904;28;20079;-66
2023/11/10 03:40:50;;;;;;;3.55;1.13;;;;;;;23.54;33.51;99719.50;4196359;28;19926;-66
2023/11/10 03:42:51;;;;;;;4.45;1.05;;;;;;;23.59;33.81;99723.34;4197296;28;20064;-66
2023/11/10 03:44:53;;;;;;;4.35;1.10;;;;;;;23.59;33.63;99717.97;4197466;28;20470;-66
2023/11/10 03:46:56;;;;;;;3.67;1.00;;;;;;;23.58;33.53;99708.25;4197253;28;20080;-66
2023/11/10 03:48:57;;;;;;;5.28;1.27;;;;;;;23.60;33.37;99710.78;4196293;28;20048;-67
2023/11/10 03:50:59;;;;;;;4.20;1.00;;;;;;;23.61;33.62;99715.16;4197129;28;20135;-66
2023/11/10 03:53:00;;;;;;;4.13;1.00;;;;;;;23.62;33.50;99711.44;4197120;28;20044;-66
2023/11/10 03:55:02;;;;;;;4.32;1.10;;;;;;;23.63;33.45;99712.28;4197141;28;20049;-65
2023/11/10 03:57:04;;;;;;;;;;;;;;;23.61;33.42;99715.97;4196112;28;20475;-66
2023/11/10 03:59:09;;;;;;;4.32;1.20;;;;;;;23.59;33.59;99717.16;4197374;28;19920;-65
2023/11/10 04:01:13;;;;;;;3.50;0.98;;;;;;;23.58;33.67;99718.97;4197201;28;20473;-66
2023/11/10 04:03:16;;;;;;;4.93;1.10;;;;;;;23.59;33.58;99715.28;4197230;28;20484;-66
2023/11/10 04:05:18;;;;;;;3.55;1.00;;;;;;;23.60;33.91;99708.09;4196903;28;20097;-66
2023/11/10 04:07:20;;;;;;;3.42;0.98;;;;;;;23.60;33.21;99703.56;4197221;28;20048;-65
2023/11/10 04:09:22;;;;;;;3.72;1.00;;;;;;;23.61;33.48;99702.56;4197423;28;20124;-65
2023/11/10 04:11:23;;;;;;;4.72;1.17;;;;;;;23.54;33.32;99690.78;4196716;28;20052;-65
2023/11/10 04:13:25;;;;;;;4.18;1.00;;;;;;;23.63;33.62;99714.97;4196873;28;20074;-65
2023/11/10 04:15:26;;;;;;;3.60;0.95;;;;;;;23.64;33.75;99714.81;4196805;28;20072;-66
2023/11/10 04:17:28;;;;;;;4.00;1.17;;;;;;;23.63;33.09;99707.75;4196724;28;20052;-67
2023/11/10 04:19:30;;;;;;;2.90;0.98;;;;;;;23.63;33.38;99701.56;4195141;28;20045;-66
2023/11/10 04:21:31;;;;;;;4.20;1.17;;;;;;;23.61;33.48;99704.41;4196917;28;20103;-66
2023/11/10 04:23:33;;;;;;;;;;;;;;;23.60;33.39;99702.72;4197378;28;20048;-65
2023/11/10 04:25:35;;;;;;;4.22;1.20;;;;;;;23.57;33.72;99705.72;4196898;28;19920;-65
2023/11/10 04:27:37;;;;;;;3.83;1.10;;;;;;;23.59;33.47;99693.00;4196385;28;20140;-65
2023/11/10 04:29:39;;;;;;;4.20;1.27;;;;;;;23.60;33.40;99700.88;4196618;28;20067;-65
2023/11/10 04:31:41;;;;;;;4.00;1.00;;;;;;;23.60;33.64;99695.50;4196628;28;20418;-65
2023/11/10 04:33:43;;;;;;;3.58;1.00;;;;;;;23.60;33.18;99692.00;4196642;28;20059;-66
2023/11/10 04:35:45;;;;;;;4.40;1.05;;;;;;;23.62;33.40;99692.66;4196820;28;20486;-65
2023/11/10 04:37:49;;;;;;;4.00;1.10;;;;;;;23.62;33.20;99689.97;4196741;28;20058;-65
2023/11/10 04:39:52;;;;;;;3.50;0.80;;;;;;;23.64;33.21;99687.97;4195469;28;20045;-65
2023/11/10 04:41:54;;;;;;;4.05;1.20;;;;;;;23.63;33.47;99683.59;4196479;28;20063;-65
2023/11/10 04:43:56;;;;;;;4.20;1.10;;;;;;;23.60;33.06;99676.72;4196752;28;20404;-65
2023/11/10 04:45:57;;;;;;;4.60;1.08;;;;;;;23.59;33.18;99676.88;4196639;28;20136;-65
2023/11/10 04:47:59;;;;;;;;;;;;;;;23.58;33.21;99680.56;4197223;28;20049;-65
2023/11/10 04:50:00;;;;;;;3.75;1.00;;;;;;;23.56;33.62;99675.38;4196586;28;19999;-65
2023/11/10 04:52:04;;;;;;;3.80;1.10;;;;;;;23.58;33.46;99675.19;4196598;28;20136;-65
2023/11/10 04:54:05;;;;;;;4.97;1.00;;;;;;;23.58;33.44;99673.34;4196530;28;20051;-65
2023/11/10 04:56:07;;;;;;;2.80;0.90;;;;;;;23.56;33.11;99663.78;4196339;28;20045;-66
2023/11/10 04:58:09;;;;;;;3.67;0.98;;;;;;;23.60;33.30;99671.34;4196533;28;20484;-65
2023/11/10 05:00:13;;;;;;;3.63;0.85;;;;;;;23.58;33.27;99664.47;4196598;28;20102;-65
2023/11/10 05:02:15;;;;;;;3.60;0.98;;;;;;;23.60;33.11;99668.66;4196621;28;20128;-64
2023/11/10 05:04:17;;;;;;;;;;;;;;;23.60;33.32;99657.94;4196879;28;20112;-64
2023/11/10 05:06:29;;;;;;;4.35;1.20;;;;;;;23.58;33.17;99654.56;4196515;28;20013;-65
2023/11/10 05:08:31;;;;;;;4.80;1.10;;;;;;;23.58;33.49;99672.53;4196513;28;20487;-65
2023/11/10 05:10:33;;;;;;;3.38;0.90;;;;;;;23.58;33.12;99667.97;4196119;28;20055;-65
2023/11/10 05:12:37;;;;;;;;;;;;;;;23.58;33.15;99675.19;4196705;28;20403;-65
2023/11/10 05:14:41;;;;;;;4.07;1.00;;;;;;;23.51;33.05;99664.28;4196310;28;19921;-64
2023/11/10 05:16:42;;;;;;;3.33;0.95;;;;;;;23.59;33.13;99671.53;4196461;28;20180;-64
2023/11/10 05:18:44;;;;;;;5.05;1.15;;;;;;;23.57;33.32;99663.63;4196247;28;20055;-67
2023/11/10 05:20:48;;;;;;;4.68;1.13;;;;;;;23.57;33.02;99665.47;4196412;28;20048;-67
2023/11/10 05:22:50;;;;;;;3.53;1.15;;;;;;;23.58;33.45;99651.88;4196538;28;20044;-66
2023/11/10 05:24:52;;;;;;;;;;;;;;;23.62;33.02;99665.81;4196455;28;20465;-64
2023/11/10 05:26:54;;;;;;;;;;;;;;;23.57;33.03;99666.31;4197006;28;20353;-64
2023/11/10 05:28:56;;;;;;;3.97;1.02;;;;;;;23.56;32.93;99658.41;4196173;28;20294;-64
2023/11/10 05:30:57;;;;;;;5.45;1.20;;;;;;;23.52;33.22;99651.72;4199206;28;20056;-66
2023/11/10 05:32:59;;;;;;;3.58;0.85;;;;;;;23.54;33.02;99653.22;4199679;28;20045;-65
2023/11/10 05:35:01;;;;;;;4.28;1.00;;;;;;;23.51;33.11;99636.59;4199565;28;20049;-65
2023/11/10 05:37:03;;;;;;;;;;;;;;;23.53;33.29;99664.13;4199655;28;20072;-65
2023/11/10 05:39:05;;;;;;;4.25;0.93;;;;;;;23.51;33.38;99650.84;4199221;28;20016;-64
2023/11/10 05:41:06;;;;;;;;;;;;;;;23.53;33.16;99651.53;4199899;28;20450;-65
2023/11/10 05:43:08;;;;;;;4.22;1.10;;;;;;;23.51;32.93;99641.97;4198322;28;19947;-66
2023/11/10 05:45:11;;;;;;;2.78;0.77;;;;;;;23.54;33.06;99644.34;4198987;28;20056;-65
2023/11/10 05:47:13;;;;;;;3.65;1.10;;;;;;;23.58;33.04;99648.38;4199350;28;20052;-65
2023/11/10 05:49:14;;;;;;;4.07;1.05;;;;;;;23.58;32.85;99648.38;4198957;28;20124;-66
2023/11/10 05:51:16;;;;;;;;;;;;;;;23.57;32.88;99660.97;4198743;28;20041;-65
2023/11/10 05:53:18;;;;;;;3.00;0.93;;;;;;;23.53;32.82;99643.50;4198914;28;19921;-66
2023/11/10 05:55:20;;;;;;;;;;;;;;;23.53;33.11;99643.50;4199584;28;20424;-66
2023/11/10 05:57:23;;;;;;;5.05;1.30;;;;;;;23.50;32.94;99656.41;4199012;28;19920;-66
2023/11/10 05:59:25;;;;;;;4.78;1.10;;;;;;;23.52;33.09;99649.03;4198982;28;20469;-65
2023/11/10 06:01:28;;;;;;;4.03;1.15;;;;;;;23.52;33.15;99652.53;4199028;28;20419;-65
2023/11/10 06:03:30;;;;;;;4.25;1.10;;;;;;;23.51;33.01;99652.72;4198994;28;20499;-66
2023/11/10 06:05:32;;;;;;;3.38;1.10;;;;;;;23.53;33.25;99635.44;4199113;28;20123;-65
2023/11/10 06:07:33;;;;;;;3.75;1.00;;;;;;;23.51;33.21;99644.66;4198536;28;20048;-65
2023/11/10 06:09:35;;;;;;;5.20;1.08;;;;;;;23.52;33.08;99640.97;4199149;28;20044;-65
2023/11/10 06:11:37;;;;;;;;;;;;;;;23.54;32.83;99660.44;4199455;28;20052;-65
2023/11/10 06:13:57;;;;;;;4.55;1.20;;;;;;;23.49;32.88;99650.19;4199160;28;20007;-66
2023/11/10 06:15:59;;;;;;;4.47;1.10;;;;;;;23.51;33.01;99647.34;4198851;28;20052;-66
2023/11/10 06:18:01;;;;;;;4.10;1.00;;;;;;;23.50;32.91;99648.34;4198805;28;20040;-66
2023/11/10 06:20:03;;;;;;;;;;;;;;;23.51;33.07;99652.72;4199338;28;20048;-65
2023/11/10 06:22:04;;;;;;;4.35;1.17;;;;;;;23.48;32.84;99647.69;4198664;28;19973;-65
2023/11/10 06:24:06;;;;;;;;;;;;;;;23.50;32.88;99657.25;4199121;28;20040;-65
2023/11/10 06:26:10;;;;;;;4.93;1.23;;;;;;;23.49;33.08;99660.94;4198691;28;19920;-66
2023/11/10 06:28:11;;;;;;;4.13;1.23;;;;;;;23.49;32.76;99658.25;4198541;28;20049;-65
2023/11/10 06:30:13;;;;;;;;;;;;;;;23.50;33.05;99662.63;4199013;28;20506;-66
2023/11/10 06:32:18;;;;;;;3.25;1.00;;;;;;;23.49;32.88;99660.06;4198574;28;19966;-65
2023/11/10 06:34:21;;;;;;;4.30;1.20;;;;;;;23.43;32.75;99645.50;4198659;28;20128;-65
2023/11/10 06:36:23;;;;;;;5.47;1.02;;;;;;;23.51;33.06;99639.28;4198256;28;20172;-65
2023/11/10 06:38:25;;;;;;;5.13;1.30;;;;;;;23.48;32.98;99640.47;4198251;28;20041;-65
2023/11/10 06:40:27;;;;;;;3.88;1.00;;;;;;;23.54;33.15;99661.28;4197334;28;20135;-65
2023/11/10 06:42:34;;;;;;;3.90;0.93;;;;;;;23.53;32.86;99664.13;4197760;28;20068;-65
2023/11/10 06:44:37;;;;;;;5.13;1.33;;;;;;;23.51;32.64;99658.91;4198347;28;20442;-65
2023/11/10 06:46:38;;;;;;;4.40;1.13;;;;;;;23.51;32.92;99658.06;4196787;28;20044;-65
2023/11/10 06:48:40;;;;;;;4.03;0.90;;;;;;;23.49;32.91;99658.25;4198248;28;20384;-65
2023/11/10 06:50:42;;;;;;;;;;;;;;;23.50;32.83;99664.44;4198593;28;20070;-65
2023/11/10 06:52:44;;;;;;;3.53;1.15;;;;;;;23.49;33.05;99671.66;4198255;28;19924;-65
2023/11/10 06:54:45;;;;;;;5.75;1.00;;;;;;;23.51;33.18;99675.00;4198104;28;20052;-65
2023/11/10 06:56:47;;;;;;;5.15;1.30;;;;;;;23.53;33.02;99674.88;4197926;28;20041;-65
2023/11/10 06:58:49;;;;;;;5.20;1.30;;;;;;;23.51;33.12;99664.28;4198105;28;20048;-65
2023/11/10 07:00:50;;;;;;;5.75;1.25;;;;;;;23.50;32.74;99675.19;4198190;28;20040;-65
2023/11/10 07:02:56;;;;;;;;;;;;;;;23.50;32.80;99676.03;4198689;28;20124;-66
2023/11/10 07:04:58;;;;;;;5.32;1.15;;;;;;;23.49;33.20;99684.22;4198119;28;19971;-65
2023/11/10 07:06:59;;;;;;;5.43;1.40;;;;;;;23.50;33.05;99691.28;4197654;28;20045;-66
2023/11/10 07:09:01;;;;;;;4.65;1.35;;;;;;;23.50;32.89;99676.03;4198247;28;20147;-65
2023/11/10 07:11:03;;;;;;;;;;;;;;;23.49;32.79;99671.66;4198310;28;20045;-64
2023/11/10 07:13:04;;;;;;;3.70;1.05;;;;;;;23.48;33.02;99667.31;4197819;28;19974;-64
2023/11/10 07:15:08;;;;;;;5.95;1.40;;;;;;;23.51;32.91;99660.75;4197809;28;20049;-65
2023/11/10 07:17:15;;;;;;;5.00;1.00;;;;;;;23.53;32.79;99639.97;4197801;28;20474;-65
2023/11/10 07:19:18;;;;;;;3.75;1.10;;;;;;;23.52;32.84;99655.22;4197811;28;20048;-64
2023/11/10 07:21:19;;;;;;;5.18;1.23;;;;;;;23.53;32.99;99640.81;4197414;28;20044;-64
2023/11/10 07:23:22;;;;;;;4.97;1.25;;;;;;;23.54;32.93;99657.75;4197870;28;20048;-64
2023/11/10 07:25:25;;;;;;;5.10;1.50;;;;;;;23.52;32.56;99639.13;4197899;28;20430;-64
2023/11/10 07:27:28;;;;;;;4.70;1.38;;;;;;;23.51;32.61;99636.59;4197660;28;20471;-64
2023/11/10 07:29:30;;;;;;;5.50;1.15;;;;;;;23.50;32.69;99635.78;4197617;28;20090;-64
2023/11/10 07:31:31;;;;;;;3.88;1.10;;;;;;;23.49;32.88;99636.78;4196587;28;20049;-64
2023/11/10 07:33:33;;;;;;;3.47;1.20;;;;;;;23.48;32.51;99629.72;4197642;28;20197;-64
2023/11/10 07:35:36;;;;;;;5.53;1.55;;;;;;;23.50;32.69;99634.94;4197217;28;20071;-64
2023/11/10 07:37:40;;;;;;;5.78;1.42;;;;;;;23.51;33.01;99642.81;4197642;28;20053;-65
2023/11/10 07:39:42;;;;;;;5.43;1.40;;;;;;;23.53;32.66;99638.13;4197314;28;20480;-64
2023/11/10 07:41:43;;;;;;;4.38;1.30;;;;;;;23.51;32.99;99642.81;4197530;28;20518;-65
2023/11/10 07:43:45;;;;;;;4.50;1.25;;;;;;;23.55;32.60;99648.69;4197369;28;20095;-65
2023/11/10 07:45:47;;;;;;;4.00;1.10;;;;;;;23.57;32.59;99646.69;4197206;28;20047;-65
2023/11/10 07:47:50;;;;;;;6.65;1.60;;;;;;;23.55;32.95;99644.16;4197301;28;20557;-65
2023/11/10 07:49:52;;;;;;;6.72;1.50;;;;;;;23.55;33.14;99649.53;4196864;28;20292;-65
2023/11/10 07:51:54;;;;;;;4.40;1.10;;;;;;;23.52;32.60;99643.66;4197075;28;20083;-65
2023/11/10 07:53:56;;;;;;;5.95;1.30;;;;;;;23.53;33.15;99645.34;4197097;28;20048;-65
2023/11/10 07:55:58;;;;;;;6.15;1.45;;;;;;;23.53;33.00;99650.72;4197182;28;20119;-65
2023/11/10 07:58:01;;;;;;;6.05;1.52;;;;;;;23.49;33.17;99644.84;4197128;28;20094;-65
2023/11/10 08:00:07;;;;;;;5.63;1.40;;;;;;;23.53;32.55;99648.84;4197290;28;20075;-65
2023/11/10 08:02:09;;;;;;;5.47;1.42;;;;;;;23.55;32.67;99641.50;4197133;28;20583;-65
2023/11/10 08:04:10;;;;;;;;;;;;;;;23.56;32.71;99642.31;4197353;28;20041;-65
2023/11/10 08:06:12;;;;;;;5.20;1.48;;;;;;;23.51;33.05;99640.13;4197254;28;19969;-65
2023/11/10 08:08:14;;;;;;;3.75;1.25;;;;;;;23.53;32.79;99637.28;4197064;28;20475;-65
2023/11/10 08:10:16;;;;;;;4.07;1.00;;;;;;;23.60;32.88;99639.13;4197121;28;20059;-65
2023/11/10 08:12:18;;;;;;;5.25;1.35;;;;;;;23.59;32.65;99636.63;4196968;28;20048;-65
2023/11/10 08:14:20;;;;;;;6.75;1.45;;;;;;;23.60;32.58;99646.38;4196986;28;20159;-64
2023/11/10 08:16:22;;;;;;;4.30;1.40;;;;;;;23.60;32.54;99652.56;4196753;28;20075;-65
2023/11/10 08:18:24;;;;;;;5.35;1.50;;;;;;;23.59;32.71;99645.50;4196488;28;20052;-65
2023/11/10 08:20:26;;;;;;;;;;;;;;;23.59;32.71;99644.69;4197173;28;20044;-66
2023/11/10 08:22:28;;;;;;;5.35;1.33;;;;;;;23.61;32.76;99645.38;4196910;28;19971;-65
2023/11/10 08:24:30;;;;;;;5.43;1.65;;;;;;;23.60;32.84;99647.19;4196766;28;20058;-64
2023/11/10 08:26:32;;;;;;;4.28;1.40;;;;;;;23.60;32.57;99644.50;4196856;28;20127;-65
2023/11/10 08:28:33;;;;;;;5.90;1.42;;;;;;;23.62;32.75;99652.38;4196805;28;20094;-64
2023/11/10 08:30:35;;;;;;;6.05;1.30;;;;;;;23.60;32.84;99646.38;4196705;28;20514;-65
2023/11/10 08:32:38;;;;;;;5.53;1.60;;;;;;;23.63;32.44;99655.94;4196477;28;20419;-65
2023/11/10 08:34:41;;;;;;;5.65;1.55;;;;;;;23.61;32.53;99670.34;4196703;28;20044;-65
2023/11/10 08:36:43;;;;;;;4.45;1.45;;;;;;;23.61;32.51;99656.94;4196612;28;20036;-64
2023/11/10 08:38:45;;;;;;;5.18;1.58;;;;;;;23.61;32.72;99672.19;4196802;28;20407;-64
2023/11/10 08:40:46;;;;;;;5.78;1.60;;;;;;;23.61;32.79;99654.25;4196813;28;20045;-65
2023/11/10 08:42:48;;;;;;;5.28;1.48;;;;;;;23.61;32.97;99654.25;4196354;28;20098;-64
2023/11/10 08:44:50;;;;;;;6.30;1.40;;;;;;;23.65;32.51;99664.66;4196633;28;20048;-64
2023/11/10 08:46:52;;;;;;;7.75;2.00;;;;;;;23.66;32.37;99672.53;4195949;28;20071;-65
2023/11/10 08:48:54;;;;;;;4.90;1.40;;;;;;;23.68;32.74;99670.53;4196340;28;20124;-64
2023/11/10 08:50:55;;;;;;;;;;;;;;;23.67;32.43;99676.91;4196614;28;20057;-64
2023/11/10 08:52:57;;;;;;;5.15;1.40;;;;;;;23.67;32.43;99662.63;4196596;28;19926;-65
2023/11/10 08:54:59;;;;;;;5.15;1.42;;;;;;;23.70;32.54;99667.69;4196561;28;20048;-64
2023/11/10 08:57:02;;;;;;;5.10;1.38;;;;;;;23.67;32.86;99684.09;4196683;28;20115;-65
2023/11/10 08:59:03;;;;;;;5.63;1.52;;;;;;;23.62;32.52;99665.81;4196487;28;20052;-65
2023/11/10 09:01:06;;;;;;;5.80;1.42;;;;;;;23.59;32.92;99669.66;4196602;28;20044;-65
2023/11/10 09:03:08;;;;;;;5.10;1.38;;;;;;;23.61;32.63;99673.03;4196302;28;20062;-66
2023/11/10 09:05:11;;;;;;;6.82;1.95;;;;;;;23.60;32.73;99670.53;4195739;28;20449;-65
2023/11/10 09:07:12;;;;;;;4.70;1.42;;;;;;;23.61;32.58;99670.34;4196470;28;20044;-65
2023/11/10 09:09:14;;;;;;;;;;;;;;;23.59;32.58;99672.34;4196574;28;20048;-65
2023/11/10 09:11:16;;;;;;;5.45;1.50;;;;;;;23.56;32.97;99658.41;4196460;28;19920;-65
2023/11/10 09:13:17;;;;;;;5.07;1.27;;;;;;;23.56;32.66;99658.41;4196468;28;20430;-64
2023/11/10 09:15:22;;;;;;;4.22;1.38;;;;;;;23.62;32.79;99657.75;4196413;28;20048;-65
2023/11/10 09:17:23;;;;;;;5.15;1.40;;;;;;;23.64;32.99;99660.28;4196209;28;20040;-65
2023/11/10 09:19:25;;;;;;;;;;;;;;;23.66;32.59;99661.81;4196605;28;20052;-65
2023/11/10 09:21:27;;;;;;;5.20;1.45;;;;;;;23.65;32.84;99651.25;4196437;28;19920;-65
2023/11/10 09:23:32;;;;;;;5.32;1.10;;;;;;;23.67;32.31;99657.25;4196371;28;20048;-65
2023/11/10 09:25:35;;;;;;;5.32;1.67;;;;;;;23.67;32.71;99657.25;4196099;28;20491;-65
2023/11/10 09:27:36;;;;;;;4.65;1.30;;;;;;;23.67;32.30;99659.94;4196322;28;20098;-66
2023/11/10 09:29:40;;;;;;;5.15;1.70;;;;;;;23.67;32.92;99662.63;4196404;28;20492;-66
2023/11/10 09:31:41;;;;;;;5.97;1.50;;;;;;;23.64;33.01;99645.00;4195744;28;20049;-65
2023/11/10 09:33:43;;;;;;;4.80;1.45;;;;;;;23.65;32.56;99648.56;4196265;28;20048;-65
2023/11/10 09:35:44;;;;;;;6.07;1.50;;;;;;;23.66;32.54;99653.75;4196023;28;20462;-66
2023/11/10 09:37:46;;;;;;;5.15;1.60;;;;;;;23.67;32.74;99649.22;4196163;28;20048;-65
2023/11/10 09:39:48;;;;;;;3.78;1.33;;;;;;;23.68;32.46;99637.47;4195973;28;20056;-65
2023/11/10 09:41:53;;;;;;;6.43;1.63;;;;;;;23.68;32.76;99638.31;4196187;28;20055;-65
2023/11/10 09:43:56;;;;;;;5.03;1.60;;;;;;;23.66;32.92;99632.28;4196015;28;20135;-65